sensor_id;sensor_type;location;lat;lon;timestamp;pressure;altitude;pressure_sealevel;temperature;humidity
26083;BME280;13848;49.018;12.078;2022-12-18T00:00:42;98956.78;;;-4.09;78.99
26083;BME280;13848;49.018;12.078;2022-12-18T00:03:08;98957.31;;;-4.04;78.96
26083;BME280;13848;49.018;12.078;2022-12-18T00:05:34;98954.81;;;-4.05;78.17
26083;BME280;13848;49.018;12.078;2022-12-18T00:08:02;98953.41;;;-4.11;78.51
26083;BME280;13848;49.018;12.078;2022-12-18T00:10:28;98930.59;;;-3.97;78.76
26083;BME280;13848;49.018;12.078;2022-12-18T00:12:54;98931.66;;;-4.00;77.80
26083;BME280;13848;49.018;12.078;2022-12-18T00:15:20;98936.03;;;-4.01;78.44
26083;BME280;13848;49.018;12.078;2022-12-18T00:17:46;98936.56;;;-3.81;78.18
26083;BME280;13848;49.018;12.078;2022-12-18T00:20:12;98943.28;;;-3.77;77.67
26083;BME280;13848;49.018;12.078;2022-12-18T00:22:38;98945.41;;;-3.82;77.91
26083;BME280;13848;49.018;12.078;2022-12-18T00:25:06;98952.59;;;-3.98;79.09
26083;BME280;13848;49.018;12.078;2022-12-18T00:27:32;98958.84;;;-3.99;79.01
26083;BME280;13848;49.018;12.078;2022-12-18T00:29:58;98960.38;;;-4.24;79.55
26083;BME280;13848;49.018;12.078;2022-12-18T00:32:24;98962.47;;;-3.88;79.71
26083;BME280;13848;49.018;12.078;2022-12-18T00:34:50;98964.09;;;-3.99;79.17
26083;BME280;13848;49.018;12.078;2022-12-18T00:37:16;98967.00;;;-4.45;81.07
26083;BME280;13848;49.018;12.078;2022-12-18T00:39:42;98969.75;;;-4.06;79.84
26083;BME280;13848;49.018;12.078;2022-12-18T00:42:10;98965.56;;;-3.95;78.31
26083;BME280;13848;49.018;12.078;2022-12-18T00:44:36;98964.53;;;-3.93;78.36
26083;BME280;13848;49.018;12.078;2022-12-18T00:47:02;98971.97;;;-3.72;78.36
26083;BME280;13848;49.018;12.078;2022-12-18T00:49:28;98973.72;;;-3.59;78.15
26083;BME280;13848;49.018;12.078;2022-12-18T00:51:55;98978.59;;;-3.53;78.14
26083;BME280;13848;49.018;12.078;2022-12-18T00:54:21;98980.81;;;-3.46;77.37
26083;BME280;13848;49.018;12.078;2022-12-18T00:56:47;98985.44;;;-3.50;77.36
26083;BME280;13848;49.018;12.078;2022-12-18T00:59:14;98980.88;;;-3.61;77.32
26083;BME280;13848;49.018;12.078;2022-12-18T01:01:40;98976.91;;;-3.54;77.49
26083;BME280;13848;49.018;12.078;2022-12-18T01:04:06;98971.22;;;-3.47;77.04
26083;BME280;13848;49.018;12.078;2022-12-18T01:06:32;98972.50;;;-3.40;76.39
26083;BME280;13848;49.018;12.078;2022-12-18T01:08:58;98970.59;;;-3.26;75.97
26083;BME280;13848;49.018;12.078;2022-12-18T01:11:24;98976.81;;;-3.39;76.50
26083;BME280;13848;49.018;12.078;2022-12-18T01:13:51;98971.13;;;-3.73;77.71
26083;BME280;13848;49.018;12.078;2022-12-18T01:16:19;98969.50;;;-3.49;77.21
26083;BME280;13848;49.018;12.078;2022-12-18T01:18:45;98977.97;;;-3.43;78.14
26083;BME280;13848;49.018;12.078;2022-12-18T01:21:13;98985.28;;;-3.34;77.30
26083;BME280;13848;49.018;12.078;2022-12-18T01:23:40;98990.41;;;-3.45;77.48
26083;BME280;13848;49.018;12.078;2022-12-18T01:26:06;98988.94;;;-3.37;77.81
26083;BME280;13848;49.018;12.078;2022-12-18T01:28:33;98983.91;;;-3.27;76.85
26083;BME280;13848;49.018;12.078;2022-12-18T01:31:12;98986.53;;;-3.27;76.90
26083;BME280;13848;49.018;12.078;2022-12-18T01:33:40;98991.28;;;-3.32;77.36
26083;BME280;13848;49.018;12.078;2022-12-18T01:36:06;98989.47;;;-3.44;77.89
26083;BME280;13848;49.018;12.078;2022-12-18T01:38:32;98986.00;;;-3.32;78.13
26083;BME280;13848;49.018;12.078;2022-12-18T01:40:58;98986.63;;;-3.41;78.27
26083;BME280;13848;49.018;12.078;2022-12-18T01:43:43;98993.19;;;-3.34;77.33
26083;BME280;13848;49.018;12.078;2022-12-18T01:46:09;98997.38;;;-3.44;78.05
26083;BME280;13848;49.018;12.078;2022-12-18T01:48:36;98992.31;;;-3.47;78.52
26083;BME280;13848;49.018;12.078;2022-12-18T01:51:04;99008.25;;;-3.36;78.86
26083;BME280;13848;49.018;12.078;2022-12-18T01:53:31;99002.03;;;-3.35;78.50
26083;BME280;13848;49.018;12.078;2022-12-18T01:55:58;99003.03;;;-3.51;78.54
26083;BME280;13848;49.018;12.078;2022-12-18T01:58:30;99004.19;;;-3.55;78.86
26083;BME280;13848;49.018;12.078;2022-12-18T02:00:59;99011.75;;;-3.36;78.16
26083;BME280;13848;49.018;12.078;2022-12-18T02:03:25;99012.88;;;-3.40;78.85
26083;BME280;13848;49.018;12.078;2022-12-18T02:05:59;99006.47;;;-3.36;78.33
26083;BME280;13848;49.018;12.078;2022-12-18T02:08:32;99006.53;;;-3.50;78.41
26083;BME280;13848;49.018;12.078;2022-12-18T02:11:05;99019.06;;;-3.54;79.49
26083;BME280;13848;49.018;12.078;2022-12-18T02:13:40;99012.34;;;-3.45;79.18
26083;BME280;13848;49.018;12.078;2022-12-18T02:16:12;99018.84;;;-3.51;79.42
26083;BME280;13848;49.018;12.078;2022-12-18T02:18:45;99020.41;;;-3.88;80.72
26083;BME280;13848;49.018;12.078;2022-12-18T02:21:20;99022.22;;;-4.03;80.60
26083;BME280;13848;49.018;12.078;2022-12-18T02:23:56;99021.47;;;-4.05;81.64
26083;BME280;13848;49.018;12.078;2022-12-18T02:26:34;99017.47;;;-3.83;81.28
26083;BME280;13848;49.018;12.078;2022-12-18T02:29:05;99018.16;;;-3.67;79.60
26083;BME280;13848;49.018;12.078;2022-12-18T02:31:38;99012.94;;;-3.54;79.58
26083;BME280;13848;49.018;12.078;2022-12-18T02:34:05;99002.97;;;-3.76;80.27
26083;BME280;13848;49.018;12.078;2022-12-18T02:36:34;99015.09;;;-4.15;81.63
26083;BME280;13848;49.018;12.078;2022-12-18T02:39:03;99003.81;;;-3.76;81.06
26083;BME280;13848;49.018;12.078;2022-12-18T02:41:33;99007.88;;;-3.84;80.22
26083;BME280;13848;49.018;12.078;2022-12-18T02:44:01;99012.19;;;-3.83;80.05
26083;BME280;13848;49.018;12.078;2022-12-18T02:46:32;99014.59;;;-3.93;80.23
26083;BME280;13848;49.018;12.078;2022-12-18T02:49:06;99016.81;;;-3.87;80.58
26083;BME280;13848;49.018;12.078;2022-12-18T02:51:40;99017.28;;;-3.80;80.47
26083;BME280;13848;49.018;12.078;2022-12-18T02:54:10;99027.31;;;-3.72;79.98
26083;BME280;13848;49.018;12.078;2022-12-18T02:56:46;99029.50;;;-3.79;80.47
26083;BME280;13848;49.018;12.078;2022-12-18T02:59:17;99027.31;;;-3.99;80.22
26083;BME280;13848;49.018;12.078;2022-12-18T03:01:49;99032.97;;;-4.06;80.65
26083;BME280;13848;49.018;12.078;2022-12-18T03:04:19;99032.97;;;-4.20;80.95
26083;BME280;13848;49.018;12.078;2022-12-18T03:06:49;99028.22;;;-4.01;80.43
26083;BME280;13848;49.018;12.078;2022-12-18T03:09:21;99026.13;;;-3.81;79.99
26083;BME280;13848;49.018;12.078;2022-12-18T03:11:53;99028.66;;;-4.21;81.29
26083;BME280;13848;49.018;12.078;2022-12-18T03:14:21;99019.41;;;-4.14;81.25
26083;BME280;13848;49.018;12.078;2022-12-18T03:16:51;99023.38;;;-4.21;81.60
26083;BME280;13848;49.018;12.078;2022-12-18T03:19:21;99026.81;;;-4.06;81.78
26083;BME280;13848;49.018;12.078;2022-12-18T03:21:52;99023.50;;;-3.95;80.91
26083;BME280;13848;49.018;12.078;2022-12-18T03:24:21;99026.91;;;-3.93;80.29
26083;BME280;13848;49.018;12.078;2022-12-18T03:26:53;99025.38;;;-3.83;80.38
26083;BME280;13848;49.018;12.078;2022-12-18T03:29:22;99025.97;;;-4.07;80.61
26083;BME280;13848;49.018;12.078;2022-12-18T03:31:53;99022.91;;;-4.13;81.49
26083;BME280;13848;49.018;12.078;2022-12-18T03:34:23;99018.97;;;-4.20;82.00
26083;BME280;13848;49.018;12.078;2022-12-18T03:36:50;99024.97;;;-4.04;81.51
26083;BME280;13848;49.018;12.078;2022-12-18T03:39:16;99016.00;;;-4.02;81.52
26083;BME280;13848;49.018;12.078;2022-12-18T03:41:44;99012.59;;;-3.89;80.75
26083;BME280;13848;49.018;12.078;2022-12-18T03:44:21;99019.34;;;-3.71;80.43
26083;BME280;13848;49.018;12.078;2022-12-18T03:46:55;99019.56;;;-3.88;80.47
26083;BME280;13848;49.018;12.078;2022-12-18T03:49:28;99007.72;;;-3.95;80.64
26083;BME280;13848;49.018;12.078;2022-12-18T03:52:01;99008.25;;;-3.76;80.52
26083;BME280;13848;49.018;12.078;2022-12-18T03:54:30;98998.38;;;-3.60;80.08
26083;BME280;13848;49.018;12.078;2022-12-18T03:57:01;99004.28;;;-3.56;79.63
26083;BME280;13848;49.018;12.078;2022-12-18T03:59:32;99018.38;;;-3.70;79.88
26083;BME280;13848;49.018;12.078;2022-12-18T04:02:01;99012.97;;;-3.95;80.87
26083;BME280;13848;49.018;12.078;2022-12-18T04:04:28;99021.44;;;-3.90;80.98
26083;BME280;13848;49.018;12.078;2022-12-18T04:06:55;99019.94;;;-3.94;80.82
26083;BME280;13848;49.018;12.078;2022-12-18T04:09:22;99029.63;;;-3.95;81.55
26083;BME280;13848;49.018;12.078;2022-12-18T04:11:48;99033.47;;;-3.86;81.23
26083;BME280;13848;49.018;12.078;2022-12-18T04:14:15;99027.09;;;-3.96;81.42
26083;BME280;13848;49.018;12.078;2022-12-18T04:16:42;99029.06;;;-3.86;81.19
26083;BME280;13848;49.018;12.078;2022-12-18T04:19:08;99036.28;;;-3.75;80.99
26083;BME280;13848;49.018;12.078;2022-12-18T04:21:34;99034.22;;;-3.84;80.31
26083;BME280;13848;49.018;12.078;2022-12-18T04:24:00;99037.78;;;-3.71;80.47
26083;BME280;13848;49.018;12.078;2022-12-18T04:26:26;99037.81;;;-3.58;79.85
26083;BME280;13848;49.018;12.078;2022-12-18T04:28:52;99043.13;;;-3.45;79.24
26083;BME280;13848;49.018;12.078;2022-12-18T04:31:18;99025.53;;;-3.72;79.86
26083;BME280;13848;49.018;12.078;2022-12-18T04:33:45;99044.03;;;-3.86;80.39
26083;BME280;13848;49.018;12.078;2022-12-18T04:36:11;99044.03;;;-3.86;80.96
26083;BME280;13848;49.018;12.078;2022-12-18T04:38:37;99050.19;;;-3.73;80.06
26083;BME280;13848;49.018;12.078;2022-12-18T04:41:04;99044.19;;;-3.75;80.64
26083;BME280;13848;49.018;12.078;2022-12-18T04:43:29;99052.09;;;-3.75;80.90
26083;BME280;13848;49.018;12.078;2022-12-18T04:46:01;99048.94;;;-3.67;79.85
26083;BME280;13848;49.018;12.078;2022-12-18T04:48:27;99045.56;;;-3.69;79.43
26083;BME280;13848;49.018;12.078;2022-12-18T04:50:54;99058.97;;;-3.60;79.21
26083;BME280;13848;49.018;12.078;2022-12-18T04:53:20;99057.13;;;-3.58;79.52
26083;BME280;13848;49.018;12.078;2022-12-18T04:55:46;99055.19;;;-3.83;79.80
26083;BME280;13848;49.018;12.078;2022-12-18T04:58:12;99056.41;;;-3.74;79.61
26083;BME280;13848;49.018;12.078;2022-12-18T05:00:38;99065.38;;;-3.77;79.54
26083;BME280;13848;49.018;12.078;2022-12-18T05:03:04;99060.31;;;-3.67;79.78
26083;BME280;13848;49.018;12.078;2022-12-18T05:05:30;99059.38;;;-3.66;79.63
26083;BME280;13848;49.018;12.078;2022-12-18T05:07:57;99052.56;;;-3.83;79.41
26083;BME280;13848;49.018;12.078;2022-12-18T05:10:23;99064.25;;;-3.87;79.48
26083;BME280;13848;49.018;12.078;2022-12-18T05:12:49;99068.00;;;-3.77;79.35
26083;BME280;13848;49.018;12.078;2022-12-18T05:15:15;99066.59;;;-3.82;79.22
26083;BME280;13848;49.018;12.078;2022-12-18T05:17:42;99070.94;;;-3.95;79.58
26083;BME280;13848;49.018;12.078;2022-12-18T05:20:09;99066.66;;;-4.11;80.32
26083;BME280;13848;49.018;12.078;2022-12-18T05:22:35;99070.28;;;-3.99;79.87
26083;BME280;13848;49.018;12.078;2022-12-18T05:25:03;99070.00;;;-4.09;79.41
26083;BME280;13848;49.018;12.078;2022-12-18T05:27:29;99071.34;;;-4.30;80.09
26083;BME280;13848;49.018;12.078;2022-12-18T05:29:55;99069.34;;;-4.12;80.56
26083;BME280;13848;49.018;12.078;2022-12-18T05:32:21;99083.06;;;-4.07;80.08
26083;BME280;13848;49.018;12.078;2022-12-18T05:34:47;99079.41;;;-4.19;80.86
26083;BME280;13848;49.018;12.078;2022-12-18T05:37:13;99079.41;;;-4.19;81.02
26083;BME280;13848;49.018;12.078;2022-12-18T05:39:39;99077.34;;;-4.14;81.02
26083;BME280;13848;49.018;12.078;2022-12-18T05:42:06;99078.88;;;-4.10;80.72
26083;BME280;13848;49.018;12.078;2022-12-18T05:44:32;99083.56;;;-4.29;80.89
26083;BME280;13848;49.018;12.078;2022-12-18T05:46:58;99086.75;;;-4.24;81.01
26083;BME280;13848;49.018;12.078;2022-12-18T05:49:24;99092.22;;;-4.13;80.68
26083;BME280;13848;49.018;12.078;2022-12-18T05:51:50;99095.56;;;-4.53;81.51
26083;BME280;13848;49.018;12.078;2022-12-18T05:54:16;99088.56;;;-4.83;82.88
26083;BME280;13848;49.018;12.078;2022-12-18T05:56:42;99080.53;;;-4.66;82.25
26083;BME280;13848;49.018;12.078;2022-12-18T05:59:09;99099.50;;;-4.75;82.64
26083;BME280;13848;49.018;12.078;2022-12-18T06:01:35;99105.63;;;-4.60;82.17
26083;BME280;13848;49.018;12.078;2022-12-18T06:04:01;99102.06;;;-4.59;81.68
26083;BME280;13848;49.018;12.078;2022-12-18T06:06:28;99103.13;;;-4.33;81.63
26083;BME280;13848;49.018;12.078;2022-12-18T06:08:55;99100.78;;;-4.38;81.64
26083;BME280;13848;49.018;12.078;2022-12-18T06:11:22;99110.94;;;-4.32;81.38
26083;BME280;13848;49.018;12.078;2022-12-18T06:13:50;99108.38;;;-4.19;80.96
26083;BME280;13848;49.018;12.078;2022-12-18T06:16:17;99108.28;;;-4.03;80.36
26083;BME280;13848;49.018;12.078;2022-12-18T06:18:43;99106.50;;;-4.03;80.28
26083;BME280;13848;49.018;12.078;2022-12-18T06:21:09;99106.16;;;-4.11;80.53
26083;BME280;13848;49.018;12.078;2022-12-18T06:23:35;99109.50;;;-4.37;80.48
26083;BME280;13848;49.018;12.078;2022-12-18T06:26:04;99113.84;;;-4.36;81.15
26083;BME280;13848;49.018;12.078;2022-12-18T06:28:30;99119.88;;;-4.34;81.49
26083;BME280;13848;49.018;12.078;2022-12-18T06:30:56;99119.47;;;-4.57;82.05
26083;BME280;13848;49.018;12.078;2022-12-18T06:33:26;99122.91;;;-4.70;82.18
26083;BME280;13848;49.018;12.078;2022-12-18T06:35:52;99117.72;;;-4.86;83.27
26083;BME280;13848;49.018;12.078;2022-12-18T06:38:18;99118.22;;;-4.95;83.34
26083;BME280;13848;49.018;12.078;2022-12-18T06:40:44;99116.94;;;-4.88;82.94
26083;BME280;13848;49.018;12.078;2022-12-18T06:43:10;99122.63;;;-4.66;82.82
26083;BME280;13848;49.018;12.078;2022-12-18T06:45:36;99130.94;;;-4.58;81.83
26083;BME280;13848;49.018;12.078;2022-12-18T06:48:02;99131.56;;;-4.54;82.86
26083;BME280;13848;49.018;12.078;2022-12-18T06:50:29;99113.44;;;-4.59;81.69
26083;BME280;13848;49.018;12.078;2022-12-18T06:52:55;99127.16;;;-4.53;81.23
26083;BME280;13848;49.018;12.078;2022-12-18T06:55:21;99132.06;;;-4.47;81.38
26083;BME280;13848;49.018;12.078;2022-12-18T06:57:47;99134.84;;;-4.65;81.82
26083;BME280;13848;49.018;12.078;2022-12-18T07:00:14;99146.56;;;-4.70;82.02
26083;BME280;13848;49.018;12.078;2022-12-18T07:02:40;99134.84;;;-4.65;82.92
26083;BME280;13848;49.018;12.078;2022-12-18T07:05:06;99141.47;;;-4.58;81.74
26083;BME280;13848;49.018;12.078;2022-12-18T07:07:34;99150.69;;;-4.50;82.07
26083;BME280;13848;49.018;12.078;2022-12-18T07:10:00;99162.06;;;-4.80;82.38
26083;BME280;13848;49.018;12.078;2022-12-18T07:12:26;99162.91;;;-4.79;83.06
26083;BME280;13848;49.018;12.078;2022-12-18T07:14:52;99166.97;;;-4.74;83.07
26083;BME280;13848;49.018;12.078;2022-12-18T07:17:18;99160.19;;;-4.78;83.57
26083;BME280;13848;49.018;12.078;2022-12-18T07:19:44;99152.53;;;-4.52;82.44
26083;BME280;13848;49.018;12.078;2022-12-18T07:22:10;99159.16;;;-4.31;82.16
26083;BME280;13848;49.018;12.078;2022-12-18T07:24:37;99155.41;;;-4.27;81.30
26083;BME280;13848;49.018;12.078;2022-12-18T07:27:03;99162.38;;;-4.26;81.35
26083;BME280;13848;49.018;12.078;2022-12-18T07:29:29;99155.88;;;-4.20;81.18
26083;BME280;13848;49.018;12.078;2022-12-18T07:31:55;99147.50;;;-4.13;81.45
26083;BME280;13848;49.018;12.078;2022-12-18T07:34:21;99148.44;;;-4.14;81.02
26083;BME280;13848;49.018;12.078;2022-12-18T07:36:47;99134.16;;;-4.24;81.15
26083;BME280;13848;49.018;12.078;2022-12-18T07:39:14;99129.19;;;-4.29;81.67
26083;BME280;13848;49.018;12.078;2022-12-18T07:41:41;99136.41;;;-4.46;81.72
26083;BME280;13848;49.018;12.078;2022-12-18T07:44:09;99101.84;;;-4.85;82.65
26083;BME280;13848;49.018;12.078;2022-12-18T07:46:34;99135.06;;;-4.53;82.81
26083;BME280;13848;49.018;12.078;2022-12-18T07:49:00;99150.38;;;-4.60;83.03
26083;BME280;13848;49.018;12.078;2022-12-18T07:51:26;99147.63;;;-4.59;82.67
26083;BME280;13848;49.018;12.078;2022-12-18T07:53:52;99147.25;;;-4.52;82.76
26083;BME280;13848;49.018;12.078;2022-12-18T07:56:19;99157.56;;;-4.78;83.85
26083;BME280;13848;49.018;12.078;2022-12-18T07:58:49;99158.72;;;-4.98;84.45
26083;BME280;13848;49.018;12.078;2022-12-18T08:01:15;99156.00;;;-4.96;85.26
26083;BME280;13848;49.018;12.078;2022-12-18T08:03:41;99149.97;;;-4.98;84.10
26083;BME280;13848;49.018;12.078;2022-12-18T08:06:09;99169.63;;;-4.60;83.98
26083;BME280;13848;49.018;12.078;2022-12-18T08:08:35;99165.22;;;-4.59;83.86
26083;BME280;13848;49.018;12.078;2022-12-18T08:11:01;99173.72;;;-4.70;84.25
26083;BME280;13848;49.018;12.078;2022-12-18T08:13:28;99170.66;;;-4.62;84.24
26083;BME280;13848;49.018;12.078;2022-12-18T08:16:01;99168.47;;;-4.70;84.01
26083;BME280;13848;49.018;12.078;2022-12-18T08:18:28;99181.31;;;-4.49;83.11
26083;BME280;13848;49.018;12.078;2022-12-18T08:20:54;99173.88;;;-4.57;83.76
26083;BME280;13848;49.018;12.078;2022-12-18T08:23:20;99180.22;;;-4.31;83.07
26083;BME280;13848;49.018;12.078;2022-12-18T08:25:47;99191.44;;;-4.13;82.57
26083;BME280;13848;49.018;12.078;2022-12-18T08:28:13;99189.16;;;-4.34;82.56
26083;BME280;13848;49.018;12.078;2022-12-18T08:30:39;99196.13;;;-4.33;82.42
26083;BME280;13848;49.018;12.078;2022-12-18T08:33:06;99201.66;;;-4.37;82.64
26083;BME280;13848;49.018;12.078;2022-12-18T08:35:35;99186.53;;;-4.34;82.07
26083;BME280;13848;49.018;12.078;2022-12-18T08:38:01;99198.66;;;-4.31;81.96
26083;BME280;13848;49.018;12.078;2022-12-18T08:40:27;99204.13;;;-4.34;82.05
26083;BME280;13848;49.018;12.078;2022-12-18T08:42:53;99200.75;;;-4.22;81.37
26083;BME280;13848;49.018;12.078;2022-12-18T08:45:19;99204.59;;;-4.13;81.13
26083;BME280;13848;49.018;12.078;2022-12-18T08:47:45;99185.22;;;-4.12;80.84
26083;BME280;13848;49.018;12.078;2022-12-18T08:50:12;99195.47;;;-4.22;80.83
26083;BME280;13848;49.018;12.078;2022-12-18T08:52:38;99212.59;;;-4.15;81.21
26083;BME280;13848;49.018;12.078;2022-12-18T08:55:05;99207.59;;;-4.34;81.15
26083;BME280;13848;49.018;12.078;2022-12-18T08:57:31;99205.03;;;-4.35;81.58
26083;BME280;13848;49.018;12.078;2022-12-18T08:59:57;99205.91;;;-4.06;81.42
26083;BME280;13848;49.018;12.078;2022-12-18T09:02:23;99210.66;;;-4.41;81.64
26083;BME280;13848;49.018;12.078;2022-12-18T09:04:49;99223.25;;;-4.46;82.17
26083;BME280;13848;49.018;12.078;2022-12-18T09:07:16;99210.13;;;-4.32;82.05
26083;BME280;13848;49.018;12.078;2022-12-18T09:09:42;99175.41;;;-4.39;81.10
26083;BME280;13848;49.018;12.078;2022-12-18T09:12:08;99210.59;;;-4.25;80.88
26083;BME280;13848;49.018;12.078;2022-12-18T09:14:35;99142.00;;;-4.67;81.17
26083;BME280;13848;49.018;12.078;2022-12-18T09:17:01;99210.81;;;-4.14;81.43
26083;BME280;13848;49.018;12.078;2022-12-18T09:19:28;99199.06;;;-3.94;81.05
26083;BME280;13848;49.018;12.078;2022-12-18T09:21:54;99198.47;;;-4.28;80.67
26083;BME280;13848;49.018;12.078;2022-12-18T09:24:21;99193.78;;;-4.23;81.24
26083;BME280;13848;49.018;12.078;2022-12-18T09:26:47;99209.59;;;-4.23;81.17
26083;BME280;13848;49.018;12.078;2022-12-18T09:29:13;99172.41;;;-4.33;80.62
26083;BME280;13848;49.018;12.078;2022-12-18T09:31:40;99210.16;;;-4.04;80.82
26083;BME280;13848;49.018;12.078;2022-12-18T09:34:06;99195.38;;;-4.20;80.59
26083;BME280;13848;49.018;12.078;2022-12-18T09:36:32;99200.53;;;-4.19;80.31
26083;BME280;13848;49.018;12.078;2022-12-18T09:38:58;99198.47;;;-4.28;80.79
26083;BME280;13848;49.018;12.078;2022-12-18T09:41:37;99197.53;;;-4.27;80.68
26083;BME280;13848;49.018;12.078;2022-12-18T09:44:11;99193.25;;;-3.99;80.63
26083;BME280;13848;49.018;12.078;2022-12-18T09:46:43;99161.25;;;-4.08;80.05
26083;BME280;13848;49.018;12.078;2022-12-18T09:49:13;99195.97;;;-3.87;79.70
26083;BME280;13848;49.018;12.078;2022-12-18T09:51:43;99193.44;;;-4.47;80.51
26083;BME280;13848;49.018;12.078;2022-12-18T09:54:12;99188.59;;;-4.39;81.30
26083;BME280;13848;49.018;12.078;2022-12-18T09:56:42;99184.31;;;-4.56;81.16
26083;BME280;13848;49.018;12.078;2022-12-18T09:59:18;99178.84;;;-4.22;80.47
26083;BME280;13848;49.018;12.078;2022-12-18T10:01:44;99177.63;;;-4.17;80.65
26083;BME280;13848;49.018;12.078;2022-12-18T10:04:10;99179.31;;;-4.16;81.00
26083;BME280;13848;49.018;12.078;2022-12-18T10:06:41;99179.56;;;-4.35;81.52
26083;BME280;13848;49.018;12.078;2022-12-18T10:09:15;99170.91;;;-4.37;81.23
26083;BME280;13848;49.018;12.078;2022-12-18T10:11:53;99163.84;;;-4.50;81.44
26083;BME280;13848;49.018;12.078;2022-12-18T10:14:25;99160.78;;;-4.59;82.25
26083;BME280;13848;49.018;12.078;2022-12-18T10:16:59;99157.00;;;-4.39;80.67
26083;BME280;13848;49.018;12.078;2022-12-18T10:19:36;99171.63;;;-4.49;82.21
26083;BME280;13848;49.018;12.078;2022-12-18T10:22:12;99161.03;;;-4.19;80.93
26083;BME280;13848;49.018;12.078;2022-12-18T10:24:45;99174.31;;;-4.06;80.55
26083;BME280;13848;49.018;12.078;2022-12-18T10:27:17;99181.56;;;-4.10;80.29
26083;BME280;13848;49.018;12.078;2022-12-18T10:29:44;99148.81;;;-4.34;79.85
26083;BME280;13848;49.018;12.078;2022-12-18T10:32:14;99149.38;;;-4.29;79.74
26083;BME280;13848;49.018;12.078;2022-12-18T10:34:41;99164.56;;;-4.04;79.60
26083;BME280;13848;49.018;12.078;2022-12-18T10:37:15;99113.84;;;-4.36;79.67
26083;BME280;13848;49.018;12.078;2022-12-18T10:39:42;99166.63;;;-3.81;79.50
26083;BME280;13848;49.018;12.078;2022-12-18T10:42:11;99163.97;;;-4.09;79.37
26083;BME280;13848;49.018;12.078;2022-12-18T10:44:38;99159.56;;;-4.09;78.99
26083;BME280;13848;49.018;12.078;2022-12-18T10:47:09;99144.09;;;-4.29;79.41
26083;BME280;13848;49.018;12.078;2022-12-18T10:49:40;99153.88;;;-4.31;79.60
26083;BME280;13848;49.018;12.078;2022-12-18T10:52:14;99142.59;;;-4.47;80.97
26083;BME280;13848;49.018;12.078;2022-12-18T10:54:46;99110.25;;;-4.64;79.92
26083;BME280;13848;49.018;12.078;2022-12-18T10:57:14;99138.94;;;-4.31;79.92
26083;BME280;13848;49.018;12.078;2022-12-18T10:59:50;99139.88;;;-4.46;80.24
26083;BME280;13848;49.018;12.078;2022-12-18T11:02:27;99145.09;;;-4.74;81.89
26083;BME280;13848;49.018;12.078;2022-12-18T11:04:53;99157.53;;;-4.48;81.55
26083;BME280;13848;49.018;12.078;2022-12-18T11:07:19;99148.41;;;-4.42;80.86
26083;BME280;13848;49.018;12.078;2022-12-18T11:09:59;99145.78;;;-4.42;80.21
26083;BME280;13848;49.018;12.078;2022-12-18T11:12:28;99138.25;;;-4.48;80.76
26083;BME280;13848;49.018;12.078;2022-12-18T11:14:56;99151.72;;;-4.24;80.82
26083;BME280;13848;49.018;12.078;2022-12-18T11:17:25;99156.56;;;-4.17;80.31
26083;BME280;13848;49.018;12.078;2022-12-18T11:19:54;99155.03;;;-4.21;79.94
26083;BME280;13848;49.018;12.078;2022-12-18T11:22:23;99154.13;;;-4.06;79.76
26083;BME280;13848;49.018;12.078;2022-12-18T11:24:55;99167.56;;;-3.82;79.09
26083;BME280;13848;49.018;12.078;2022-12-18T11:27:22;99156.47;;;-3.87;79.31
26083;BME280;13848;49.018;12.078;2022-12-18T11:29:50;99140.75;;;-4.03;79.05
26083;BME280;13848;49.018;12.078;2022-12-18T11:32:34;99157.09;;;-3.83;79.10
26083;BME280;13848;49.018;12.078;2022-12-18T11:35:12;99150.59;;;-3.63;78.66
26083;BME280;13848;49.018;12.078;2022-12-18T11:37:41;99153.13;;;-3.62;78.93
26083;BME280;13848;49.018;12.078;2022-12-18T11:40:13;99136.97;;;-4.13;78.97
26083;BME280;13848;49.018;12.078;2022-12-18T11:42:44;99154.03;;;-3.49;83.22
26083;BME280;13848;49.018;12.078;2022-12-18T11:45:26;99161.94;;;-3.49;79.01
26083;BME280;13848;49.018;12.078;2022-12-18T11:47:57;99141.09;;;-3.80;78.39
26083;BME280;13848;49.018;12.078;2022-12-18T11:50:26;99150.38;;;-3.60;78.70
26083;BME280;13848;49.018;12.078;2022-12-18T11:52:54;99146.25;;;-3.50;78.84
26083;BME280;13848;49.018;12.078;2022-12-18T11:55:28;99151.19;;;-3.87;79.04
26083;BME280;13848;49.018;12.078;2022-12-18T11:58:03;99153.91;;;-3.74;79.04
26083;BME280;13848;49.018;12.078;2022-12-18T12:00:31;99153.16;;;-3.90;78.43
26083;BME280;13848;49.018;12.078;2022-12-18T12:03:13;99149.50;;;-4.02;79.49
26083;BME280;13848;49.018;12.078;2022-12-18T12:05:50;99158.03;;;-4.13;79.78
26083;BME280;13848;49.018;12.078;2022-12-18T12:08:26;99148.16;;;-3.81;80.20
26083;BME280;13848;49.018;12.078;2022-12-18T12:11:03;99127.59;;;-3.88;79.68
26083;BME280;13848;49.018;12.078;2022-12-18T12:13:42;99137.31;;;-3.62;78.81
26083;BME280;13848;49.018;12.078;2022-12-18T12:16:17;99106.19;;;-3.84;77.65
26083;BME280;13848;49.018;12.078;2022-12-18T12:18:55;99125.47;;;-3.69;78.49
26083;BME280;13848;49.018;12.078;2022-12-18T12:21:28;99114.94;;;-3.69;78.59
26083;BME280;13848;49.018;12.078;2022-12-18T12:24:05;99121.56;;;-3.49;77.84
26083;BME280;13848;49.018;12.078;2022-12-18T12:26:41;99108.94;;;-3.71;77.23
26083;BME280;13848;49.018;12.078;2022-12-18T12:29:21;99113.25;;;-3.70;77.40
26083;BME280;13848;49.018;12.078;2022-12-18T12:32:08;99114.41;;;-3.47;77.48
26083;BME280;13848;49.018;12.078;2022-12-18T12:34:47;99104.31;;;-3.40;76.98
26083;BME280;13848;49.018;12.078;2022-12-18T12:37:25;99104.66;;;-3.59;77.16
26083;BME280;13848;49.018;12.078;2022-12-18T12:39:54;99106.25;;;-3.57;77.95
26083;BME280;13848;49.018;12.078;2022-12-18T12:42:29;99104.41;;;-3.69;77.49
26083;BME280;13848;49.018;12.078;2022-12-18T12:44:58;99097.19;;;-3.94;77.46
26083;BME280;13848;49.018;12.078;2022-12-18T12:47:31;99086.19;;;-4.15;78.52
26083;BME280;13848;49.018;12.078;2022-12-18T12:50:03;99108.69;;;-4.09;78.51
26083;BME280;13848;49.018;12.078;2022-12-18T12:52:35;99104.44;;;-4.26;79.37
26083;BME280;13848;49.018;12.078;2022-12-18T12:55:05;99104.59;;;-4.01;79.54
26083;BME280;13848;49.018;12.078;2022-12-18T12:57:40;99101.78;;;-4.12;79.18